Forside
METAR-TAF:

METAR-TAF

Lufthavne :

Nouakchott, Mauretanien

Breddekreds: 18-18-36N, længdekreds: 015-58-11W, højde: 3 m

Aktuelle vejr

Denne rapport blev lavet for 15 minutter siden, kl. 16:00 UTC
Vind 12 kt fra vestnordvest
Temperatur 27°C
Fugtighed 70%
Tryk 1014 hPa
Sigt 10 km eller mere
Nogle få skyer i en højde af 1000 ft

METAR: GQNO 161600Z 29012KT 9999 FEW010 27/21 Q1014 NOSIG

Tid: 16:15 (16:15 UTC)

Vejrudsigter

Denne rapport blev lavet for 5 timer og 15 minutter siden, kl. 11:00 UTC
Foreløbig gælder fra 16 på 12 UTC til 17 på 18 UTC
Vind 12 kt fra nordvest
Sigt: 8000 m

TAF: GQNO 161100Z 1612/1718 31012KT 8000 NSC

Vejrobservationer og prognoser fra mere end 4000 lufthavne (METAR og TAF).

De gule og røde prikker repræsenterer de meteorologiske stationer.

Flyt musen over at se navnet på stationen.

Så klik over at se vejr observationer og prognoser.

At skifte det kort: Klik på de grønne knapper med et sort kors for at zoome ind; på den grønne knap med en bindestreg for at zoome ud; eller på de grønne pile for tilstødende kort.


METAR-TAF: